createdAt,value
2018-04-14T00:00:54.425Z,82.90
2018-04-14T00:03:21.876Z,82.90
2018-04-14T00:05:49.311Z,83.50
2018-04-14T00:08:16.765Z,83.00
2018-04-14T00:10:44.262Z,82.40
2018-04-14T00:13:12.450Z,82.40
2018-04-14T00:15:40.101Z,81.90
2018-04-14T00:18:07.675Z,81.90
2018-04-14T00:20:35.119Z,81.60
2018-04-14T00:23:02.585Z,81.70
2018-04-14T00:25:30.023Z,82.10
2018-04-14T00:27:58.245Z,83.00
2018-04-14T00:30:25.767Z,83.00
2018-04-14T00:32:53.958Z,83.30
2018-04-14T00:35:21.726Z,83.20
2018-04-14T00:37:49.171Z,83.50
2018-04-14T00:40:17.714Z,83.20
2018-04-14T00:42:45.156Z,83.10
2018-04-14T00:45:12.605Z,83.30
2018-04-14T00:47:41.091Z,83.40
2018-04-14T00:50:09.257Z,83.80
2018-04-14T00:52:36.719Z,83.20
2018-04-14T00:55:04.245Z,83.40
2018-04-14T00:57:32.093Z,83.30
2018-04-14T00:59:59.523Z,83.80
2018-04-14T01:02:27.009Z,83.90
2018-04-14T01:04:54.581Z,83.70
2018-04-14T01:07:22.024Z,83.80
2018-04-14T01:09:49.462Z,82.80
2018-04-14T01:12:17.781Z,82.00
2018-04-14T01:14:45.222Z,82.00
2018-04-14T01:17:12.686Z,82.00
2018-04-14T01:19:40.133Z,81.80
2018-04-14T01:22:08.333Z,81.70
2018-04-14T01:24:35.790Z,81.70
2018-04-14T01:27:03.240Z,81.30
2018-04-14T01:29:31.661Z,81.50
2018-04-14T01:31:59.099Z,81.60
2018-04-14T01:34:26.562Z,81.70
2018-04-14T01:36:54.032Z,81.80
2018-04-14T01:39:21.477Z,81.70
2018-04-14T01:41:48.948Z,81.80
2018-04-14T01:44:16.401Z,81.90
2018-04-14T01:46:43.855Z,82.10
2018-04-14T01:49:12.078Z,82.00
2018-04-14T01:51:39.640Z,82.00
2018-04-14T01:54:07.093Z,82.30
2018-04-14T01:56:34.666Z,82.60
2018-04-14T01:59:02.128Z,82.50
2018-04-14T02:01:29.595Z,82.40
2018-04-14T02:03:57.153Z,82.40
2018-04-14T02:06:24.597Z,82.50
2018-04-14T02:08:52.063Z,82.90
2018-04-14T02:11:21.192Z,83.30
2018-04-14T02:13:49.673Z,83.60
2018-04-14T02:16:17.781Z,83.60
2018-04-14T02:18:45.225Z,83.30
2018-04-14T02:21:12.769Z,82.90
2018-04-14T02:23:40.224Z,83.30
2018-04-14T02:26:07.667Z,82.30
2018-04-14T02:28:35.122Z,81.50
2018-04-14T02:31:03.346Z,81.90
2018-04-14T02:33:30.794Z,81.90
2018-04-14T02:35:58.257Z,82.30
2018-04-14T02:38:25.693Z,82.60
2018-04-14T02:40:53.149Z,82.80
2018-04-14T02:43:20.685Z,83.20
2018-04-14T02:45:48.221Z,83.20
2018-04-14T02:48:15.687Z,83.90
2018-04-14T02:50:43.144Z,83.50
2018-04-14T02:53:10.601Z,83.00
2018-04-14T02:55:38.060Z,82.90
2018-04-14T02:58:05.502Z,82.50
2018-04-14T03:00:33.241Z,82.50
2018-04-14T03:03:01.485Z,82.30
2018-04-14T03:05:28.919Z,82.20
2018-04-14T03:07:56.350Z,82.30
2018-04-14T03:10:24.736Z,82.70
2018-04-14T03:12:52.144Z,82.70
2018-04-14T03:15:19.578Z,83.10
2018-04-14T03:17:47.083Z,82.90
2018-04-14T03:20:14.606Z,82.90
2018-04-14T03:22:42.071Z,82.90
2018-04-14T03:25:09.508Z,83.10
2018-04-14T03:27:37.734Z,82.90
2018-04-14T03:30:05.190Z,82.80
2018-04-14T03:32:32.624Z,82.90
2018-04-14T03:35:00.837Z,83.90
2018-04-14T03:37:28.281Z,83.90
2018-04-14T03:39:55.734Z,84.10
2018-04-14T03:42:23.171Z,84.00
2018-04-14T03:44:51.479Z,84.30
2018-04-14T03:47:18.973Z,83.50
2018-04-14T03:49:46.892Z,83.30
2018-04-14T03:52:15.347Z,83.40
2018-04-14T03:54:42.781Z,83.30
2018-04-14T03:57:10.257Z,83.10
2018-04-14T03:59:37.701Z,83.30
2018-04-14T04:02:05.187Z,83.60
2018-04-14T04:04:32.627Z,83.60
2018-04-14T04:07:00.087Z,83.70
2018-04-14T04:09:27.535Z,83.70
2018-04-14T04:11:54.972Z,84.00
2018-04-14T04:14:23.208Z,84.20
2018-04-14T04:16:50.650Z,83.50
2018-04-14T04:19:30.057Z,83.40
2018-04-14T04:22:10.261Z,83.20
2018-04-14T04:24:49.530Z,83.20
2018-04-14T04:27:16.978Z,83.10
2018-04-14T04:29:44.409Z,83.40
2018-04-14T04:32:11.864Z,83.60
2018-04-14T04:34:39.440Z,83.70
2018-04-14T04:37:06.876Z,83.80
2018-04-14T04:39:34.308Z,83.40
2018-04-14T04:42:01.757Z,83.40
2018-04-14T04:44:29.298Z,83.50
2018-04-14T04:46:57.139Z,83.00
2018-04-14T04:49:25.341Z,83.30
2018-04-14T04:51:53.158Z,83.30
2018-04-14T04:54:20.682Z,83.00
2018-04-14T04:56:48.132Z,83.80
2018-04-14T04:59:15.925Z,84.60
2018-04-14T05:01:43.401Z,85.10
2018-04-14T05:04:12.242Z,85.00
2018-04-14T05:06:40.022Z,85.40
2018-04-14T05:11:47.706Z,85.30
2018-04-14T05:14:16.871Z,85.30
2018-04-14T05:16:44.321Z,85.50
2018-04-14T05:19:14.332Z,85.40
2018-04-14T05:21:42.004Z,84.90
2018-04-14T05:24:11.724Z,83.80
2018-04-14T05:26:41.961Z,83.40
2018-04-14T05:29:10.595Z,82.90
2018-04-14T05:31:39.453Z,82.30
2018-04-14T05:34:10.825Z,82.40
2018-04-14T05:36:38.353Z,82.50
2018-04-14T05:39:05.785Z,83.20
2018-04-14T05:41:34.001Z,83.40
2018-04-14T05:44:01.645Z,84.40
2018-04-14T05:46:29.078Z,85.70
2018-04-14T05:48:56.576Z,85.10
2018-04-14T05:51:25.845Z,85.20
2018-04-14T05:53:53.338Z,85.40
2018-04-14T05:56:22.725Z,85.30
2018-04-14T05:58:50.193Z,83.10
2018-04-14T06:01:19.263Z,81.50
2018-04-14T06:03:46.784Z,80.40
2018-04-14T06:06:14.242Z,79.70
2018-04-14T06:08:41.677Z,81.00
2018-04-14T06:11:09.142Z,79.70
2018-04-14T06:13:37.338Z,79.90
2018-04-14T06:16:04.955Z,79.80
2018-04-14T06:18:33.809Z,79.70
2018-04-14T06:21:01.265Z,79.60
2018-04-14T06:23:28.829Z,79.60
2018-04-14T06:25:56.275Z,79.00
2018-04-14T06:28:23.833Z,79.00
2018-04-14T06:30:51.294Z,78.80
2018-04-14T06:33:18.731Z,78.80
2018-04-14T06:35:47.376Z,78.70
2018-04-14T06:38:14.822Z,78.70
2018-04-14T06:40:42.277Z,77.50
2018-04-14T06:43:09.754Z,78.80
2018-04-14T06:45:37.312Z,79.10
2018-04-14T06:48:04.745Z,77.00
2018-04-14T06:50:32.237Z,78.50
2018-04-14T06:52:59.712Z,74.40
2018-04-14T06:55:27.168Z,76.20
2018-04-14T06:57:54.634Z,75.90
2018-04-14T07:00:22.103Z,73.10
2018-04-14T07:02:49.563Z,75.80
2018-04-14T07:05:17.001Z,74.30
2018-04-14T07:07:45.862Z,74.90
2018-04-14T07:10:14.062Z,72.50
2018-04-14T07:12:42.239Z,72.40
2018-04-14T07:15:09.733Z,74.00
2018-04-14T07:17:37.281Z,73.90
2018-04-14T07:20:04.725Z,72.40
2018-04-14T07:22:32.194Z,72.80
2018-04-14T07:24:59.746Z,71.20
2018-04-14T07:27:27.949Z,71.50
2018-04-14T07:29:55.405Z,71.50
2018-04-14T07:32:22.865Z,71.30
2018-04-14T07:34:50.318Z,71.80
2018-04-14T07:37:17.766Z,73.10
2018-04-14T07:39:47.189Z,69.10
2018-04-14T07:42:14.674Z,68.90
2018-04-14T07:44:42.114Z,69.30
2018-04-14T07:47:09.571Z,69.40
2018-04-14T07:49:37.889Z,66.70
2018-04-14T07:52:05.354Z,66.60
2018-04-14T07:54:32.813Z,67.70
2018-04-14T07:57:00.253Z,64.90
2018-04-14T07:59:27.698Z,66.90
2018-04-14T08:01:56.025Z,64.40
2018-04-14T08:04:23.485Z,64.40
2018-04-14T08:06:50.923Z,65.30
2018-04-14T08:09:18.429Z,65.80
2018-04-14T08:11:45.879Z,64.70
2018-04-14T08:14:13.345Z,63.40
2018-04-14T08:16:40.801Z,61.50
2018-04-14T08:19:08.258Z,62.50
2018-04-14T08:21:35.730Z,62.60
2018-04-14T08:24:03.182Z,62.90
2018-04-14T08:26:30.630Z,61.70
2018-04-14T08:28:58.852Z,59.80
2018-04-14T08:31:26.393Z,61.10
2018-04-14T08:33:53.836Z,59.60
2018-04-14T08:39:00.489Z,59.20
2018-04-14T08:41:28.699Z,58.40
2018-04-14T08:43:56.152Z,58.30
2018-04-14T08:46:24.472Z,54.40
2018-04-14T08:48:51.912Z,54.30
2018-04-14T08:51:19.389Z,54.40
2018-04-14T08:53:46.854Z,54.00
2018-04-14T08:56:14.313Z,53.60
2018-04-14T08:58:41.778Z,52.70
2018-04-14T09:01:09.229Z,52.00
2018-04-14T09:03:36.700Z,52.50
2018-04-14T09:06:04.987Z,51.80
2018-04-14T09:08:32.534Z,52.40
2018-04-14T09:10:59.990Z,50.40
2018-04-14T09:13:27.481Z,51.40
2018-04-14T09:15:55.047Z,51.00
2018-04-14T09:18:22.483Z,50.00
2018-04-14T09:20:49.942Z,51.80
2018-04-14T09:23:17.409Z,49.20
2018-04-14T09:25:44.871Z,49.60
2018-04-14T09:28:12.310Z,49.60
2018-04-14T09:30:40.530Z,48.90
2018-04-14T09:33:07.993Z,48.80
2018-04-14T09:35:35.457Z,46.60
2018-04-14T09:38:02.900Z,45.00
2018-04-14T09:40:30.381Z,47.70
2018-04-14T09:42:57.869Z,46.30
2018-04-14T09:45:25.310Z,44.70
2018-04-14T09:47:52.763Z,47.20
2018-04-14T09:50:20.217Z,46.10
2018-04-14T09:52:47.682Z,47.10
2018-04-14T09:55:15.137Z,47.30
2018-04-14T09:57:42.591Z,45.80
2018-04-14T10:00:10.042Z,45.70
2018-04-14T10:02:43.963Z,45.30
2018-04-14T10:05:11.501Z,45.30
2018-04-14T10:07:38.922Z,45.70
2018-04-14T10:10:06.842Z,45.20
2018-04-14T10:12:35.082Z,44.40
2018-04-14T10:15:02.649Z,44.40
2018-04-14T10:17:30.105Z,43.50
2018-04-14T10:19:57.576Z,42.90
2018-04-14T10:22:25.033Z,44.20
2018-04-14T10:24:52.481Z,41.00
2018-04-14T10:27:19.950Z,40.70
2018-04-14T10:29:47.509Z,42.40
2018-04-14T10:32:14.980Z,41.20
2018-04-14T10:34:42.443Z,41.30
2018-04-14T10:37:10.010Z,40.80
2018-04-14T10:39:37.466Z,41.00
2018-04-14T10:42:04.939Z,40.40
2018-04-14T10:44:32.490Z,39.50
2018-04-14T10:47:00.251Z,40.40
2018-04-14T10:56:42.030Z,38.50
2018-04-14T10:59:09.590Z,37.40
2018-04-14T11:01:37.057Z,37.70
2018-04-14T11:04:04.492Z,36.80
2018-04-14T11:06:31.979Z,37.20
2018-04-14T11:08:59.450Z,38.10
2018-04-14T11:11:26.909Z,36.30
2018-04-14T11:13:54.470Z,36.80
2018-04-14T11:16:22.674Z,37.10
2018-04-14T11:18:50.139Z,36.40
2018-04-14T11:21:17.594Z,37.70
2018-04-14T11:23:45.138Z,38.90
2018-04-14T11:26:12.626Z,40.20
2018-04-14T11:28:40.073Z,40.00
2018-04-14T11:31:07.625Z,41.70
2018-04-14T11:33:35.087Z,42.50
2018-04-14T11:36:02.658Z,43.60
2018-04-14T11:38:30.117Z,41.00
2018-04-14T11:40:57.562Z,42.10
2018-04-14T11:43:25.084Z,43.20
2018-04-14T11:45:52.515Z,42.40
2018-04-14T11:48:19.969Z,42.80
2018-04-14T11:50:47.427Z,43.90
2018-04-14T11:53:14.869Z,41.90
2018-04-14T11:55:42.358Z,42.40
2018-04-14T11:58:09.923Z,40.70
2018-04-14T12:00:37.358Z,40.80
2018-04-14T12:03:04.821Z,40.00
2018-04-14T12:05:32.277Z,40.00
2018-04-14T12:07:59.771Z,40.00
2018-04-14T12:10:27.244Z,39.20
2018-04-14T12:12:54.702Z,38.00
2018-04-14T12:15:22.158Z,40.60
2018-04-14T12:17:49.597Z,38.50
2018-04-14T12:20:17.085Z,40.00
2018-04-14T12:22:45.194Z,40.20
2018-04-14T12:25:12.726Z,41.90
2018-04-14T12:27:40.683Z,41.00
2018-04-14T12:30:08.119Z,39.40
2018-04-14T12:32:36.362Z,39.00
2018-04-14T12:35:03.902Z,38.90
2018-04-14T12:37:31.454Z,39.30
2018-04-14T12:39:58.930Z,38.90
2018-04-14T12:42:26.573Z,37.80
2018-04-14T12:44:54.007Z,39.50
2018-04-14T12:47:22.259Z,39.00
2018-04-14T12:49:49.812Z,38.90
2018-04-14T12:52:17.271Z,39.20
2018-04-14T12:54:44.725Z,40.00
2018-04-14T12:57:12.303Z,38.70
2018-04-14T12:59:39.739Z,38.80
2018-04-14T13:02:07.193Z,39.50
2018-04-14T13:04:34.701Z,39.70
2018-04-14T13:07:02.162Z,40.20
2018-04-14T13:09:29.621Z,41.00
2018-04-14T13:11:57.174Z,40.80
2018-04-14T13:14:24.633Z,38.70
2018-04-14T13:16:52.094Z,38.80
2018-04-14T13:19:19.905Z,39.70
2018-04-14T13:21:47.333Z,40.20
2018-04-14T13:24:14.825Z,39.70
2018-04-14T13:26:42.278Z,40.00
2018-04-14T13:29:11.230Z,40.80
2018-04-14T13:31:38.700Z,40.80
2018-04-14T13:34:06.273Z,40.50
2018-04-14T13:36:33.742Z,41.50
2018-04-14T13:39:01.204Z,41.60
2018-04-14T13:41:28.654Z,42.60
2018-04-14T13:43:56.117Z,42.20
2018-04-14T13:46:23.554Z,42.10
2018-04-14T13:48:51.050Z,41.30
2018-04-14T13:51:18.510Z,41.10
2018-04-14T13:53:45.955Z,42.30
2018-04-14T13:56:13.414Z,42.80
2018-04-14T13:58:40.858Z,43.00
2018-04-14T14:01:08.368Z,42.30
2018-04-14T14:03:35.825Z,42.50
2018-04-14T14:06:03.281Z,41.70
2018-04-14T14:08:30.757Z,41.90
2018-04-14T14:10:58.219Z,42.20
2018-04-14T14:13:25.681Z,42.30
2018-04-14T14:15:53.140Z,38.40
2018-04-14T14:18:20.617Z,39.30
2018-04-14T14:20:48.077Z,37.80
2018-04-14T14:23:15.631Z,39.30
2018-04-14T14:25:43.087Z,39.90
2018-04-14T14:28:10.665Z,36.80
2018-04-14T14:30:38.121Z,37.00
2018-04-14T14:33:05.590Z,38.50
2018-04-14T14:35:33.041Z,38.80
2018-04-14T14:38:00.506Z,38.70
2018-04-14T14:40:27.954Z,39.20
2018-04-14T14:42:55.439Z,38.30
2018-04-14T14:45:22.902Z,36.40
2018-04-14T14:47:50.366Z,36.50
2018-04-14T14:50:23.638Z,36.80
2018-04-14T14:52:51.113Z,38.80
2018-04-14T14:55:18.579Z,36.40
2018-04-14T14:57:46.054Z,37.10
2018-04-14T15:00:13.519Z,36.90
2018-04-14T15:02:40.963Z,35.90
2018-04-14T15:05:08.423Z,35.90
2018-04-14T15:07:35.882Z,37.20
2018-04-14T15:10:03.345Z,37.10
2018-04-14T15:12:30.798Z,36.60
2018-04-14T15:14:58.279Z,37.10
2018-04-14T15:17:25.788Z,36.80
2018-04-14T15:19:53.193Z,35.20
2018-04-14T15:22:20.658Z,36.20
2018-04-14T15:24:48.117Z,33.60
2018-04-14T15:27:15.564Z,34.40
2018-04-14T15:29:43.031Z,35.70
2018-04-14T15:32:10.494Z,35.60
2018-04-14T15:34:37.943Z,36.60
2018-04-14T15:37:06.161Z,34.60
2018-04-14T15:39:33.602Z,34.60
2018-04-14T15:42:01.074Z,34.80
2018-04-14T15:44:28.539Z,35.30
2018-04-14T15:46:56.066Z,35.80
2018-04-14T15:49:23.497Z,34.80
2018-04-14T15:51:50.962Z,34.50
2018-04-14T15:54:18.773Z,34.30
2018-04-14T15:56:46.265Z,35.00
2018-04-14T15:59:13.982Z,36.30
2018-04-14T16:01:42.204Z,35.90
2018-04-14T16:04:09.985Z,35.80
2018-04-14T16:06:37.149Z,36.10
2018-04-14T16:09:05.301Z,36.70
2018-04-14T16:11:32.769Z,37.30
2018-04-14T16:14:00.336Z,37.80
2018-04-14T16:16:27.908Z,37.80
2018-04-14T16:18:55.358Z,37.20
2018-04-14T16:21:22.825Z,36.90
2018-04-14T16:23:50.260Z,36.90
2018-04-14T16:26:17.754Z,38.00
2018-04-14T16:28:45.198Z,37.20
2018-04-14T16:31:12.649Z,37.20
2018-04-14T16:33:41.857Z,37.90
2018-04-14T16:36:09.459Z,38.60
2018-04-14T16:38:37.151Z,38.90
2018-04-14T16:41:04.585Z,38.50
2018-04-14T16:43:32.040Z,38.70
2018-04-14T16:45:59.614Z,39.50
2018-04-14T16:48:27.247Z,38.90
2018-04-14T16:50:54.687Z,39.50
2018-04-14T16:53:22.887Z,39.60
2018-04-14T16:55:50.383Z,39.60
2018-04-14T16:58:18.020Z,40.00
2018-04-14T17:00:45.606Z,40.20
2018-04-14T17:03:13.078Z,40.10
2018-04-14T17:05:40.535Z,40.90
2018-04-14T17:08:07.998Z,40.70
2018-04-14T17:10:35.466Z,40.30
2018-04-14T17:13:02.947Z,40.90
2018-04-14T17:15:30.534Z,41.10
2018-04-14T17:17:58.865Z,41.20
2018-04-14T17:20:26.344Z,41.10
2018-04-14T17:22:53.787Z,41.70
2018-04-14T17:25:21.281Z,41.40
2018-04-14T17:27:48.744Z,41.60
2018-04-14T17:30:17.006Z,41.50
2018-04-14T17:32:44.540Z,41.50
2018-04-14T17:35:12.055Z,41.70
2018-04-14T17:37:40.283Z,42.20
2018-04-14T17:40:07.785Z,42.10
2018-04-14T17:42:35.255Z,42.30
2018-04-14T17:45:02.702Z,42.50
2018-04-14T17:47:30.194Z,42.70
2018-04-14T17:49:57.654Z,43.20
2018-04-14T17:52:25.102Z,43.30
2018-04-14T17:54:54.141Z,44.30
2018-04-14T17:57:21.855Z,43.40
2018-04-14T17:59:49.290Z,44.00
2018-04-14T18:02:17.000Z,44.30
2018-04-14T18:04:44.454Z,44.10
2018-04-14T18:07:11.989Z,44.30
2018-04-14T18:09:39.503Z,44.70
2018-04-14T18:12:07.691Z,45.00
2018-04-14T18:14:36.027Z,46.00
2018-04-14T18:17:03.510Z,45.90
2018-04-14T18:19:31.064Z,46.50
2018-04-14T18:21:58.545Z,46.20
2018-04-14T18:24:26.003Z,47.00
2018-04-14T18:26:54.586Z,48.70
2018-04-14T18:29:22.160Z,48.20
2018-04-14T18:31:50.437Z,49.30
2018-04-14T18:34:17.873Z,49.30
2018-04-14T18:36:45.463Z,49.10
2018-04-14T18:39:12.913Z,49.00
2018-04-14T18:41:40.485Z,49.00
2018-04-14T18:44:08.009Z,48.80
2018-04-14T18:46:35.468Z,49.10
2018-04-14T18:49:02.925Z,49.20
2018-04-14T18:51:30.500Z,49.50
2018-04-14T18:53:57.932Z,50.60
2018-04-14T18:56:26.185Z,51.60
2018-04-14T18:58:54.346Z,51.60
2018-04-14T19:01:21.822Z,52.00
2018-04-14T19:03:49.306Z,51.00
2018-04-14T19:06:16.841Z,51.80
2018-04-14T19:08:44.538Z,52.40
2018-04-14T19:11:13.315Z,53.20
2018-04-14T19:13:40.758Z,53.30
2018-04-14T19:16:08.206Z,54.00
2018-04-14T19:18:35.683Z,54.20
2018-04-14T19:21:03.162Z,54.30
2018-04-14T19:23:30.656Z,54.80
2018-04-14T19:25:58.162Z,55.10
2018-04-14T19:28:25.678Z,54.50
2018-04-14T19:30:53.915Z,56.30
2018-04-14T19:33:21.462Z,56.30
2018-04-14T19:35:48.914Z,56.50
2018-04-14T19:38:16.407Z,57.00
2018-04-14T19:40:43.865Z,56.80
2018-04-14T19:43:11.331Z,56.80
2018-04-14T19:45:38.793Z,56.50
2018-04-14T19:48:06.291Z,57.20
2018-04-14T19:50:33.743Z,57.20
2018-04-14T19:53:01.194Z,56.90
2018-04-14T19:55:28.754Z,57.00
2018-04-14T19:57:56.214Z,57.50
2018-04-14T20:00:23.749Z,56.70
2018-04-14T20:02:51.245Z,57.40
2018-04-14T20:05:18.706Z,57.40
2018-04-14T20:07:46.345Z,57.10
2018-04-14T20:10:13.804Z,57.80
2018-04-14T20:12:41.243Z,58.20
2018-04-14T20:15:09.454Z,58.30
2018-04-14T20:17:36.925Z,58.30
2018-04-14T20:20:04.487Z,58.50
2018-04-14T20:22:32.139Z,58.00
2018-04-14T20:24:59.615Z,58.30
2018-04-14T20:27:27.085Z,58.40
2018-04-14T20:29:54.557Z,58.70
2018-04-14T20:32:21.988Z,58.50
2018-04-14T20:34:49.459Z,59.00
2018-04-14T20:37:16.990Z,60.30
2018-04-14T20:39:44.502Z,59.60
2018-04-14T20:42:11.944Z,59.40
2018-04-14T20:44:39.409Z,59.40
2018-04-14T20:47:06.907Z,59.90
2018-04-14T20:49:34.352Z,60.30
2018-04-14T20:52:01.793Z,59.60
2018-04-14T20:54:30.346Z,59.70
2018-04-14T20:56:58.682Z,60.50
2018-04-14T20:59:26.249Z,60.30
2018-04-14T21:01:53.710Z,61.20
2018-04-14T21:04:21.171Z,60.80
2018-04-14T21:06:48.638Z,60.60
2018-04-14T21:09:16.205Z,60.60
2018-04-14T21:11:43.663Z,59.30
2018-04-14T21:14:11.230Z,59.60
2018-04-14T21:16:38.697Z,59.80
2018-04-14T21:19:06.254Z,59.40
2018-04-14T21:21:33.709Z,61.70
2018-04-14T21:24:01.181Z,61.20
2018-04-14T21:26:28.617Z,61.60
2018-04-14T21:28:56.101Z,60.10
2018-04-14T21:31:23.645Z,60.90
2018-04-14T21:33:51.090Z,61.20
2018-04-14T21:36:19.298Z,61.80
2018-04-14T21:38:46.796Z,61.80
2018-04-14T21:41:14.357Z,62.00
2018-04-14T21:43:41.805Z,62.50
2018-04-14T21:46:09.237Z,62.50
2018-04-14T21:48:36.709Z,63.20
2018-04-14T21:51:04.145Z,65.20
2018-04-14T21:53:32.385Z,65.60
2018-04-14T21:55:59.817Z,65.50
2018-04-14T21:58:27.285Z,64.70
2018-04-14T22:00:54.856Z,64.30
2018-04-14T22:03:22.644Z,64.60
2018-04-14T22:05:50.095Z,64.00
2018-04-14T22:08:17.557Z,65.10
2018-04-14T22:10:45.114Z,63.80
2018-04-14T22:13:12.569Z,62.10
2018-04-14T22:15:40.042Z,62.30
2018-04-14T22:18:07.510Z,63.10
2018-04-14T22:20:35.077Z,63.40
2018-04-14T22:23:02.522Z,62.60
2018-04-14T22:25:29.994Z,65.10
2018-04-14T22:27:57.437Z,63.90
2018-04-14T22:30:24.922Z,66.00
2018-04-14T22:32:52.381Z,65.00
2018-04-14T22:35:19.829Z,66.00
2018-04-14T22:37:47.297Z,65.80
2018-04-14T22:40:14.742Z,65.40
2018-04-14T22:42:42.198Z,64.80
2018-04-14T22:45:09.667Z,63.20
2018-04-14T22:47:37.157Z,62.80
2018-04-14T22:50:05.450Z,65.90
2018-04-14T22:52:32.901Z,65.70
2018-04-14T22:55:00.457Z,65.70
2018-04-14T22:57:27.919Z,64.50
2018-04-14T22:59:55.379Z,65.10
2018-04-14T23:02:22.836Z,66.30
2018-04-14T23:04:50.274Z,67.60
2018-04-14T23:07:17.816Z,67.30
2018-04-14T23:09:46.135Z,65.50
2018-04-14T23:12:13.630Z,66.00
2018-04-14T23:14:41.094Z,66.40
2018-04-14T23:17:08.650Z,68.40
2018-04-14T23:19:36.117Z,67.90
2018-04-14T23:22:03.574Z,67.50
2018-04-14T23:24:31.045Z,67.50
2018-04-14T23:26:58.507Z,69.20
2018-04-14T23:29:25.976Z,67.40
2018-04-14T23:31:53.530Z,65.40
2018-04-14T23:34:20.997Z,67.40
2018-04-14T23:36:48.441Z,68.40
2018-04-14T23:39:16.088Z,68.10
2018-04-14T23:41:43.577Z,69.40
2018-04-14T23:44:11.038Z,68.20
2018-04-14T23:46:38.501Z,69.40
2018-04-14T23:49:06.066Z,69.00
2018-04-14T23:51:33.506Z,68.70
2018-04-14T23:54:00.967Z,66.40
2018-04-14T23:56:28.424Z,66.70
2018-04-14T23:58:55.875Z,67.40
